Time;durP1;ratioP1;P1;durP2;ratioP2;P2;SDS_P1;SDS_P2;PMS_P1;PMS_P2;Temp;Humidity;BMP_temperature;BMP_pressure;BME280_temperature;BME280_humidity;BME280_pressure;Samples;Min_cycle;Max_cycle;Signal;HPM_P1;HPM_P2
2021/10/28 00:14:32;;;;;;;10.13;8.07;;;10.80;99.90;;;;;;5118363;27;20200;-77
2021/10/28 00:17:08;;;;;;;11.17;8.23;;;10.90;99.90;;;;;;5135331;27;20232;-76
2021/10/28 00:19:35;;;;;;;12.80;8.87;;;10.80;99.90;;;;;;5115600;28;20193;-77
2021/10/28 00:22:03;;;;;;;10.87;8.60;;;10.90;99.90;;;;;;5115152;28;20225;-77
2021/10/28 00:24:30;;;;;;;12.10;8.53;;;11.00;99.90;;;;;;5115667;28;20197;-77
2021/10/28 00:26:57;;;;;;;11.07;8.43;;;10.90;99.90;;;;;;5115479;28;20696;-76
2021/10/28 00:29:26;;;;;;;10.33;8.27;;;11.00;99.90;;;;;;5115447;28;20310;-77
2021/10/28 00:31:55;;;;;;;10.50;8.57;;;10.90;99.90;;;;;;5115241;27;20226;-77
2021/10/28 00:34:23;;;;;;;9.77;7.93;;;10.90;99.90;;;;;;5114748;28;20584;-77
2021/10/28 00:36:50;;;;;;;10.83;7.83;;;10.80;99.90;;;;;;5115206;28;20288;-77
2021/10/28 00:39:18;;;;;;;10.60;7.60;;;10.80;99.90;;;;;;5115255;28;20229;-77
2021/10/28 00:41:45;;;;;;;10.90;7.80;;;10.80;99.90;;;;;;5115047;27;20225;-77
2021/10/28 00:44:12;;;;;;;9.47;7.60;;;10.80;99.90;;;;;;5114653;28;20197;-76
2021/10/28 00:46:40;;;;;;;10.87;8.57;;;10.90;99.90;;;;;;5115055;27;20247;-77
2021/10/28 00:49:10;;;;;;;12.33;7.53;;;10.80;99.90;;;;;;5123869;27;20193;-77
2021/10/28 00:51:40;;;;;;;10.73;7.83;;;10.80;99.90;;;;;;5119125;27;20665;-77
2021/10/28 00:54:11;;;;;;;10.87;8.30;;;10.80;99.90;;;;;;5115017;28;20201;-77
2021/10/28 00:56:42;;;;;;;11.27;7.97;;;10.80;99.90;;;;;;5114745;28;20236;-77
2021/10/28 00:59:09;;;;;;;10.20;7.53;;;10.80;99.90;;;;;;5114498;28;20210;-77
2021/10/28 01:01:35;;;;;;;10.43;7.50;;;10.80;99.90;;;;;;5114762;28;20236;-77
2021/10/28 01:04:03;;;;;;;9.80;7.40;;;10.60;99.90;;;;;;5115130;27;20669;-76
2021/10/28 01:06:30;;;;;;;9.83;7.63;;;10.70;99.90;;;;;;5115331;28;20233;-76
2021/10/28 01:08:59;;;;;;;11.63;7.73;;;10.60;99.90;;;;;;5128178;27;20245;-77
2021/10/28 01:11:27;;;;;;;10.40;7.73;;;10.50;99.90;;;;;;5134928;27;20629;-77
2021/10/28 01:13:56;;;;;;;10.77;8.00;;;10.40;99.90;;;;;;5128585;27;20669;-77
2021/10/28 01:16:23;;;;;;;11.40;8.17;;;10.40;99.90;;;;;;5114426;28;20209;-77
2021/10/28 01:18:50;;;;;;;12.80;8.63;;;10.30;99.90;;;;;;5114378;28;20292;-77
2021/10/28 01:21:18;;;;;;;12.60;8.43;;;10.30;99.90;;;;;;5114248;28;20289;-77
2021/10/28 01:23:46;;;;;;;10.73;8.60;;;10.30;99.90;;;;;;5114262;28;20288;-78
2021/10/28 01:26:15;;;;;;;12.50;8.30;;;10.30;99.90;;;;;;5114367;28;20232;-77
2021/10/28 01:28:51;;;;;;;9.70;7.87;;;10.20;99.90;;;;;;5113601;28;20201;-77
2021/10/28 01:31:20;;;;;;;10.73;8.27;;;10.30;99.90;;;;;;5134257;27;20735;-77
2021/10/28 01:33:47;;;;;;;10.27;7.97;;;10.10;99.90;;;;;;5133693;27;20687;-76
2021/10/28 01:36:17;;;;;;;9.93;8.20;;;10.00;99.90;;;;;;5134828;27;20205;-77
2021/10/28 01:38:45;;;;;;;12.03;9.13;;;9.80;99.90;;;;;;5134491;27;20664;-77
2021/10/28 01:41:13;;;;;;;14.87;9.07;;;9.80;99.90;;;;;;5134501;27;20208;-77
2021/10/28 01:43:40;;;;;;;12.10;8.87;;;9.80;99.90;;;;;;5134188;27;20297;-77
2021/10/28 01:46:07;;;;;;;10.53;8.83;;;9.80;99.90;;;;;;5134441;27;20232;-77
2021/10/28 01:48:36;;;;;;;13.17;9.33;;;9.80;99.90;;;;;;5134035;27;20324;-77
2021/10/28 01:51:04;;;;;;;12.30;8.83;;;9.60;99.90;;;;;;5132546;27;20222;-76
2021/10/28 01:53:30;;;;;;;12.17;9.70;;;9.60;99.90;;;;;;5113222;28;20251;-77
2021/10/28 01:55:59;;;;;;;12.03;9.33;;;9.70;99.90;;;;;;5113797;28;20280;-76
2021/10/28 01:58:26;;;;;;;13.73;9.80;;;9.60;99.90;;;;;;5113456;28;20288;-76
2021/10/28 02:00:53;;;;;;;13.63;9.67;;;9.50;99.90;;;;;;5113424;28;20291;-77
2021/10/28 02:03:20;;;;;;;12.30;9.10;;;9.40;99.90;;;;;;5114465;27;20212;-77
2021/10/28 02:05:48;;;;;;;14.37;9.87;;;9.30;99.90;;;;;;5126899;27;20578;-77
2021/10/28 02:08:15;;;;;;;11.87;10.10;;;9.20;99.90;;;;;;5113578;28;20193;-77
2021/10/28 02:10:42;;;;;;;13.03;10.30;;;9.10;99.90;;;;;;5113208;28;20692;-77
2021/10/28 02:13:12;;;;;;;13.03;10.57;;;9.10;99.90;;;;;;5117432;27;20308;-76
2021/10/28 02:15:40;;;;;;;13.93;10.00;;;9.10;99.90;;;;;;5133658;27;20208;-76
2021/10/28 02:18:08;;;;;;;16.23;10.47;;;8.90;99.90;;;;;;5133173;27;20671;-77
2021/10/28 02:20:35;;;;;;;16.07;10.83;;;8.90;99.90;;;;;;5113710;27;20194;-77
2021/10/28 02:23:03;;;;;;;15.70;10.57;;;9.10;99.90;;;;;;5122839;27;20189;-77
2021/10/28 02:25:29;;;;;;;17.03;11.60;;;9.10;99.90;;;;;;5122838;27;20684;-77
2021/10/28 02:27:57;;;;;;;17.20;11.20;;;9.00;99.90;;;;;;5133458;27;20299;-76
2021/10/28 02:30:25;;;;;;;13.17;10.53;;;9.10;99.90;;;;;;5128500;27;20193;-76
2021/10/28 02:32:53;;;;;;;13.83;10.40;;;9.00;99.90;;;;;;5132680;27;20765;-77
2021/10/28 02:35:20;;;;;;;14.10;10.77;;;8.80;99.90;;;;;;5133433;27;20839;-77
2021/10/28 02:37:48;;;;;;;13.30;10.17;;;8.70;99.90;;;;;;5133623;27;20745;-77
2021/10/28 02:40:15;;;;;;;16.40;10.40;;;8.60;99.90;;;;;;5132217;27;20196;-77
2021/10/28 02:42:42;;;;;;;18.00;11.47;;;8.70;99.90;;;;;;5128350;27;20231;-77
2021/10/28 02:45:10;;;;;;;18.10;11.53;;;8.70;99.90;;;;;;5119541;28;20289;-77
2021/10/28 02:47:39;;;;;;;16.40;11.43;;;8.90;99.90;;;;;;5112357;28;20272;-78
2021/10/28 02:50:06;;;;;;;14.80;10.87;;;8.80;99.90;;;;;;5130467;27;20291;-77
2021/10/28 02:52:35;;;;;;;14.47;11.23;;;8.70;99.90;;;;;;5120766;27;20252;-77
2021/10/28 02:55:03;;;;;;;16.80;11.87;;;8.80;99.90;;;;;;5112232;28;20194;-77
2021/10/28 02:57:30;;;;;;;13.10;10.67;;;8.70;99.90;;;;;;5112812;28;20209;-77
2021/10/28 02:59:57;;;;;;;15.80;11.30;;;8.60;99.90;;;;;;5112557;28;20637;-77
2021/10/28 03:02:25;;;;;;;15.07;11.37;;;8.70;99.90;;;;;;5112299;28;20219;-77
2021/10/28 03:04:53;;;;;;;14.83;10.63;;;8.60;99.90;;;;;;5115370;28;20200;-77
2021/10/28 03:07:20;;;;;;;14.67;11.37;;;8.50;99.90;;;;;;5116721;28;20632;-77
2021/10/28 03:09:47;;;;;;;16.93;12.03;;;8.50;99.90;;;;;;5116371;28;20285;-77
2021/10/28 03:12:13;;;;;;;16.47;12.73;;;8.40;99.90;;;;;;5116582;28;20250;-77
2021/10/28 03:14:43;;;;;;;18.03;13.27;;;8.50;99.90;;;;;;5126095;27;20199;-77
2021/10/28 03:17:25;;;;;;;15.83;11.63;;;8.60;99.90;;;;;;5137372;27;20200;-77
2021/10/28 03:25:33;;;;;;;16.20;11.33;;;8.70;99.90;;;;;;5136329;27;20291;-77
2021/10/28 03:25:42;;;;;;;17.77;12.27;;;8.50;99.90;;;;;;5116230;28;20690;-77
2021/10/28 03:28:17;;;;;;;15.97;13.20;;;8.50;99.90;;;;;;5116148;28;20206;-77
2021/10/28 03:30:44;;;;;;;17.43;13.27;;;8.50;99.90;;;;;;5116600;28;20685;-77
2021/10/28 03:33:14;;;;;;;16.63;12.80;;;8.40;99.90;;;;;;5116505;27;20260;-77
2021/10/28 03:35:45;;;;;;;16.90;12.90;;;8.40;99.90;;;;;;5116233;27;20222;-76
2021/10/28 03:38:18;;;;;;;17.93;13.30;;;8.30;99.90;;;;;;5116131;28;20195;-77
2021/10/28 03:46:37;;;;;;;17.50;13.40;;;8.10;99.90;;;;;;5120585;27;20210;-76
2021/10/28 03:49:32;;;;;;;19.50;13.57;;;8.10;99.90;;;;;;5127038;27;20233;-76
2021/10/28 04:01:00;;;;;;;20.33;13.57;;;8.30;99.90;;;;;;5151152;27;21069;-75
2021/10/28 04:17:50;;;;;;;17.80;12.80;;;8.70;99.90;;;;;;5087291;28;20573;-77
2021/10/28 04:20:37;;;;;;;17.40;12.03;;;8.80;99.90;;;;;;5087218;28;20222;-76
2021/10/28 04:31:18;;;;;;;13.63;11.23;;;8.50;99.90;;;;;;5087396;28;20201;-77
2021/10/28 04:33:47;;;;;;;16.83;11.30;;;8.30;99.90;;;;;;5086229;28;20297;-77
2021/10/28 04:36:14;;;;;;;14.37;11.63;;;8.20;99.90;;;;;;5086559;28;20201;-77
2021/10/28 04:38:41;;;;;;;17.43;11.73;;;8.10;99.90;;;;;;5086718;28;20222;-77
2021/10/28 04:41:08;;;;;;;15.40;11.57;;;8.10;99.90;;;;;;5086925;28;20624;-77
2021/10/28 04:43:35;;;;;;;17.53;12.03;;;8.00;99.90;;;;;;5112599;27;20292;-77
2021/10/28 04:46:03;;;;;;;15.03;11.50;;;8.20;99.90;;;;;;5129560;27;20719;-77
2021/10/28 04:48:30;;;;;;;16.70;11.87;;;8.20;99.90;;;;;;5129655;27;20661;-76
2021/10/28 04:50:58;;;;;;;13.97;11.50;;;8.30;99.90;;;;;;5129393;27;20289;-77
2021/10/28 04:53:27;;;;;;;15.60;11.50;;;8.50;99.90;;;;;;5129862;27;20294;-77
2021/10/28 04:55:54;;;;;;;15.23;10.87;;;8.70;99.90;;;;;;5138277;27;20285;-76
2021/10/28 04:58:21;;;;;;;12.70;11.00;;;8.90;99.90;;;;;;5150163;27;20285;-77
2021/10/28 05:00:48;;;;;;;13.20;9.93;;;8.90;99.90;;;;;;5150417;27;20202;-77
2021/10/28 05:03:15;;;;;;;15.97;10.87;;;8.90;99.90;;;;;;5150345;27;20257;-76
2021/10/28 05:05:42;;;;;;;15.37;11.10;;;8.90;99.90;;;;;;5150367;27;20240;-76
2021/10/28 05:08:10;;;;;;;16.23;11.27;;;8.80;99.90;;;;;;5138340;27;20204;-76
2021/10/28 05:10:40;;;;;;;14.80;11.27;;;8.80;99.90;;;;;;5123304;27;20227;-76
2021/10/28 05:13:11;;;;;;;15.07;11.87;;;8.80;99.90;;;;;;5115577;28;20234;-76
2021/10/28 05:15:41;;;;;;;15.60;11.93;;;8.90;99.90;;;;;;5115689;28;20675;-76
2021/10/28 05:18:09;;;;;;;15.53;12.00;;;9.00;99.90;;;;;;5116099;28;20224;-76
2021/10/28 05:20:36;;;;;;;17.30;12.80;;;8.90;99.90;;;;;;5115963;28;20253;-77
2021/10/28 05:23:03;;;;;;;18.73;11.43;;;8.90;99.90;;;;;;5115844;28;20247;-76
2021/10/28 05:25:31;;;;;;;15.47;12.57;;;9.00;99.90;;;;;;5115877;28;20236;-77
2021/10/28 05:27:58;;;;;;;14.00;12.07;;;9.00;99.90;;;;;;5115819;28;20265;-76
2021/10/28 05:30:25;;;;;;;15.20;11.70;;;9.00;99.90;;;;;;5115918;28;20201;-77
2021/10/28 05:32:52;;;;;;;15.40;12.10;;;8.90;99.90;;;;;;5114507;28;20320;-77
2021/10/28 05:35:20;;;;;;;15.83;12.03;;;8.90;99.90;;;;;;5115033;28;20240;-76
2021/10/28 05:37:46;;;;;;;15.13;12.87;;;8.90;99.90;;;;;;5115217;28;20204;-76
2021/10/28 05:40:14;;;;;;;17.00;12.80;;;8.90;99.90;;;;;;5114544;28;20759;-76
2021/10/28 05:42:47;;;;;;;16.97;12.33;;;8.80;99.90;;;;;;5115035;28;20288;-76
2021/10/28 05:45:14;;;;;;;17.43;13.03;;;8.90;99.90;;;;;;5114617;28;20200;-76
2021/10/28 05:47:41;;;;;;;16.50;12.33;;;8.90;99.90;;;;;;5114946;28;20297;-76
2021/10/28 05:50:13;;;;;;;18.43;12.47;;;9.00;99.90;;;;;;5114784;28;20228;-77
2021/10/28 05:52:40;;;;;;;15.30;11.43;;;9.00;99.90;;;;;;5115145;28;20218;-75
2021/10/28 05:55:07;;;;;;;14.23;11.33;;;9.10;99.90;;;;;;5114785;27;20236;-76
2021/10/28 05:57:34;;;;;;;15.07;10.97;;;9.10;99.90;;;;;;5124323;27;20208;-76
2021/10/28 06:00:04;;;;;;;17.57;11.00;;;9.30;99.90;;;;;;5134895;27;20322;-76
2021/10/28 06:02:31;;;;;;;14.33;10.67;;;9.30;99.90;;;;;;5116462;27;20228;-77
2021/10/28 06:04:58;;;;;;;15.50;10.67;;;9.40;99.90;;;;;;5114481;28;20192;-76
2021/10/28 06:07:25;;;;;;;11.73;10.13;;;9.40;99.90;;;;;;5114495;28;20229;-76
2021/10/28 06:09:52;;;;;;;15.70;10.53;;;9.30;99.90;;;;;;5114518;28;20244;-76
2021/10/28 06:12:19;;;;;;;13.87;10.47;;;9.40;99.90;;;;;;5134557;27;20242;-77
2021/10/28 06:14:45;;;;;;;15.07;10.47;;;9.30;99.90;;;;;;5135215;27;20250;-76
2021/10/28 06:17:16;;;;;;;14.37;9.93;;;9.30;99.90;;;;;;5134891;27;20377;-76
2021/10/28 06:19:43;;;;;;;13.53;9.90;;;9.40;99.90;;;;;;5134481;27;20307;-76
2021/10/28 06:22:10;;;;;;;14.17;10.10;;;9.40;99.90;;;;;;5133878;27;20295;-77
2021/10/28 06:24:37;;;;;;;13.27;10.13;;;9.50;99.90;;;;;;5122335;27;20205;-76
2021/10/28 06:27:05;;;;;;;13.87;9.57;;;9.50;99.90;;;;;;5114282;28;20237;-76
2021/10/28 06:29:32;;;;;;;13.57;9.63;;;9.50;99.90;;;;;;5114006;28;20281;-76
2021/10/28 06:32:00;;;;;;;12.17;9.27;;;9.40;99.90;;;;;;5113869;28;20197;-77
2021/10/28 06:34:37;;;;;;;12.20;9.73;;;9.40;99.90;;;;;;5113341;28;20197;-77
2021/10/28 06:37:05;;;;;;;12.93;9.47;;;9.40;99.90;;;;;;5115166;27;20932;-77
2021/10/28 06:39:32;;;;;;;10.97;9.43;;;9.30;99.90;;;;;;5113833;28;20224;-77
2021/10/28 06:41:59;;;;;;;12.90;9.60;;;9.30;99.90;;;;;;5114267;28;20284;-76
2021/10/28 06:44:26;;;;;;;13.10;9.30;;;9.30;99.90;;;;;;5113707;28;20288;-77
2021/10/28 06:46:53;;;;;;;15.70;9.73;;;9.30;99.90;;;;;;5113380;28;20698;-76
2021/10/28 06:49:20;;;;;;;12.63;9.67;;;9.20;99.90;;;;;;5113390;28;20239;-77
2021/10/28 06:51:48;;;;;;;11.63;9.60;;;9.10;99.90;;;;;;5114016;28;20209;-77
2021/10/28 06:54:23;;;;;;;14.27;9.97;;;9.10;99.90;;;;;;5113703;28;20248;-77
2021/10/28 06:57:16;;;;;;;14.03;9.70;;;9.10;99.90;;;;;;5113900;28;20193;-76
2021/10/28 07:02:33;;;;;;;14.50;9.97;;;9.00;99.90;;;;;;5112945;28;20218;-77
2021/10/28 07:05:00;;;;;;;14.67;10.27;;;8.90;99.90;;;;;;5113643;28;20254;-77
2021/10/28 07:07:30;;;;;;;15.03;10.30;;;8.90;99.90;;;;;;5113604;28;20204;-77
2021/10/28 07:10:03;;;;;;;12.50;11.00;;;8.90;99.90;;;;;;5113588;28;20198;-76
2021/10/28 07:12:41;;;;;;;14.10;11.00;;;9.00;99.90;;;;;;5113373;28;20204;-77
2021/10/28 07:15:15;;;;;;;13.67;9.57;;;9.10;99.90;;;;;;5113366;27;20200;-77
2021/10/28 07:17:51;;;;;;;11.27;8.77;;;9.50;99.90;;;;;;5120952;27;20606;-77
2021/10/28 07:23:17;;;;;;;10.70;8.40;;;9.90;99.90;;;;;;5131906;27;20257;-76
2021/10/28 07:31:25;;;;;;;9.07;7.27;;;10.80;99.90;;;;;;5116063;27;20185;-77
2021/10/28 07:34:03;;;;;;;10.30;7.70;;;11.20;99.90;;;;;;5133564;27;20197;-77
2021/10/28 07:56:42;;;;;;;7.03;6.07;;;12.40;99.90;;;;;;4968560;28;20205;-77
2021/10/28 08:04:55;;;;;;;6.80;5.82;;;13.10;99.90;;;;;;4986060;28;20260;-77
2021/10/28 08:15:49;;;;;;;8.00;6.38;;;13.30;99.90;;;;;;4910669;29;20207;-77
2021/10/28 08:18:32;;;;;;;7.53;6.07;;;13.50;99.90;;;;;;4918571;28;20236;-77
2021/10/28 08:23:44;;;;;;;7.10;6.00;;;13.80;99.90;;;;;;5023520;28;20585;-78
2021/10/28 08:29:03;;;;;;;8.07;6.50;;;13.80;99.90;;;;;;5065942;28;20284;-77
2021/10/28 08:31:30;;;;;;;7.45;6.05;;;14.70;99.90;;;;;;5066355;28;20199;-78
2021/10/28 08:33:57;;;;;;;6.32;5.47;;;13.80;99.90;;;;;;5072643;28;20225;-78
2021/10/28 08:36:27;;;;;;;6.72;5.60;;;14.30;99.90;;;;;;5066568;28;20278;-77
2021/10/28 08:38:54;;;;;;;7.63;6.05;;;14.30;99.90;;;;;;5068643;28;20230;-78
2021/10/28 08:41:24;;;;;;;6.32;5.65;;;14.20;99.90;;;;;;5065808;28;20258;-78
2021/10/28 08:43:54;;;;;;;6.68;5.63;;;14.40;99.90;;;;;;5065703;28;20290;-77
2021/10/28 08:46:24;;;;;;;5.90;4.60;;;13.50;99.90;;;;;;5066105;28;20199;-77
2021/10/28 08:48:56;;;;;;;6.35;5.30;;;13.70;99.90;;;;;;5069170;28;20334;-78
2021/10/28 08:51:28;;;;;;;7.38;5.20;;;13.80;99.90;;;;;;5102300;28;20583;-78
2021/10/28 09:24:36;;;;;;;7.13;5.70;;;14.40;99.90;;;;;;5094785;28;20205;-77
2021/10/28 09:27:08;;;;;;;6.07;5.13;;;15.30;99.90;;;;;;5094248;28;20204;-77
2021/10/28 09:29:42;;;;;;;6.72;5.50;;;15.30;99.90;;;;;;5094599;28;20267;-77
2021/10/28 09:32:18;;;;;;;7.13;5.45;;;15.80;99.90;;;;;;5094170;28;20256;-77
2021/10/28 09:35:22;;;;;;;7.38;5.60;;;15.00;99.90;;;;;;5094023;28;20640;-77
2021/10/28 09:46:37;;;;;;;7.47;5.18;;;15.10;99.90;;;;;;5072787;28;20202;-77
2021/10/28 09:52:06;;;;;;;8.48;5.85;;;14.80;99.90;;;;;;5093133;28;20205;-77
2021/10/28 09:54:43;;;;;;;10.50;6.20;;;14.50;99.90;;;;;;5093768;28;20719;-77
2021/10/28 10:00:09;;;;;;;7.22;5.88;;;16.00;99.90;;;;;;5091142;28;20240;-78
2021/10/28 10:02:38;;;;;;;9.50;6.50;;;16.10;99.90;;;;;;5092975;28;20482;-77
2021/10/28 10:05:09;;;;;;;8.38;6.45;;;16.60;99.90;;;;;;5098871;28;20816;-78
2021/10/28 10:07:40;;;;;;;6.70;5.72;;;16.70;99.90;;;;;;5093696;28;20244;-77
2021/10/28 10:10:08;;;;;;;8.63;5.97;;;16.40;99.90;;;;;;5093384;28;20281;-77
2021/10/28 10:12:37;;;;;;;7.85;6.13;;;16.40;99.90;;;;;;5094001;28;20619;-77
2021/10/28 10:15:06;;;;;;;7.55;6.28;;;16.30;99.90;;;;;;5093488;28;20698;-78
2021/10/28 10:17:33;;;;;;;8.00;6.35;;;16.20;99.90;;;;;;5093579;28;20230;-77
2021/10/28 10:20:02;;;;;;;9.50;6.68;;;16.60;99.90;;;;;;5092666;28;20731;-77
2021/10/28 10:22:41;;;;;;;7.75;6.38;;;16.90;99.90;;;;;;5093093;28;20198;-77
2021/10/28 10:25:43;;;;;;;6.90;6.20;;;16.80;99.90;;;;;;5093213;28;20289;-78
2021/10/28 11:21:45;;;;;;;6.00;5.40;;;19.30;99.90;;;;;;5072489;28;20735;-78
2021/10/28 11:33:26;;;;;;;6.85;5.47;;;18.60;99.90;;;;;;5087048;28;20273;-78
2021/10/28 12:15:27;;;;;;;6.47;5.75;;;18.40;99.90;;;;;;5009446;28;20288;-78
2021/10/28 12:45:56;;;;;;;7.00;5.30;;;19.40;99.90;;;;;;4978126;28;20200;-78
2021/10/28 13:03:15;;;;;;;7.35;4.88;;;20.30;99.90;;;;;;5012668;28;20212;-77
2021/10/28 13:36:16;;;;;;;13.00;8.95;;;18.30;99.90;;;;;;5094170;28;20220;-78
2021/10/28 13:49:54;;;;;;;7.82;6.03;;;18.60;99.90;;;;;;5031703;28;20203;-77
2021/10/28 13:52:38;;;;;;;8.43;6.00;;;18.60;99.90;;;;;;5045891;28;20734;-78
2021/10/28 13:55:18;;;;;;;15.68;5.88;;;18.80;99.90;;;;;;5031192;28;20608;-78
2021/10/28 13:58:06;;;;;;;8.00;6.25;;;19.20;99.90;;;;;;5031322;28;20192;-78
2021/10/28 14:29:09;;;;;;;6.07;4.47;;;18.40;99.90;;;;;;4950467;28;20242;-78
2021/10/28 15:28:59;;;;;;;5.03;4.53;;;17.50;99.90;;;;;;4932755;29;20202;-78
2021/10/28 15:34:42;;;;;;;5.07;4.10;;;17.40;99.90;;;;;;4932742;29;20669;-77
2021/10/28 15:37:14;;;;;;;7.47;4.47;;;17.20;99.90;;;;;;4932375;29;20723;-77
2021/10/28 15:39:47;;;;;;;7.50;4.10;;;17.10;99.90;;;;;;4932417;29;20282;-78
2021/10/28 15:51:14;;;;;;;5.78;4.22;;;16.70;99.90;;;;;;5092120;28;20605;-77
2021/10/28 15:53:58;;;;;;;7.40;4.60;;;16.60;99.90;;;;;;5092003;28;20571;-77
2021/10/28 16:23:54;;;;;;;8.07;5.30;;;15.90;99.90;;;;;;4993875;28;20260;-78
2021/10/28 16:26:21;;;;;;;6.47;5.13;;;15.80;99.90;;;;;;4993817;28;20213;-77
2021/10/28 16:28:48;;;;;;;8.13;5.30;;;15.80;99.90;;;;;;4993547;28;20284;-77
2021/10/28 16:31:17;;;;;;;8.30;5.73;;;15.70;99.90;;;;;;4993664;28;20776;-78
2021/10/28 16:33:44;;;;;;;7.43;5.50;;;15.60;99.90;;;;;;4993835;28;20790;-78
2021/10/28 16:36:11;;;;;;;8.10;5.40;;;15.60;99.90;;;;;;4993999;28;20202;-77
2021/10/28 16:38:39;;;;;;;7.87;5.80;;;15.60;99.90;;;;;;5038590;28;20231;-78
2021/10/28 16:41:06;;;;;;;7.00;5.63;;;15.50;99.90;;;;;;5075038;28;20199;-77
2021/10/28 16:43:33;;;;;;;8.20;5.30;;;15.40;99.90;;;;;;5074989;28;20200;-77
2021/10/28 16:46:00;;;;;;;6.93;5.37;;;15.40;99.90;;;;;;5090191;28;20245;-77
2021/10/28 16:48:28;;;;;;;7.03;5.10;;;15.30;99.90;;;;;;5115666;28;20255;-78
2021/10/28 16:50:55;;;;;;;8.10;5.33;;;15.20;99.90;;;;;;5115704;28;20236;-77
2021/10/28 16:53:23;;;;;;;7.20;5.90;;;15.20;99.90;;;;;;5115160;28;20197;-78
2021/10/28 16:55:50;;;;;;;9.43;6.10;;;15.20;99.90;;;;;;5115205;28;20201;-78
2021/10/28 16:58:16;;;;;;;8.33;5.40;;;15.20;99.90;;;;;;5115770;28;20281;-77
2021/10/28 17:00:43;;;;;;;8.67;5.73;;;15.10;99.90;;;;;;5110507;28;20665;-77
2021/10/28 17:03:10;;;;;;;8.83;5.70;;;15.00;99.90;;;;;;5094801;28;20643;-77
2021/10/28 17:05:39;;;;;;;10.17;6.20;;;14.90;99.90;;;;;;5094897;28;20650;-77
2021/10/28 17:08:06;;;;;;;7.47;6.00;;;14.90;99.90;;;;;;5095298;28;20293;-77
2021/10/28 17:10:33;;;;;;;8.60;6.80;;;14.90;99.90;;;;;;5093993;28;20593;-77
2021/10/28 17:13:00;;;;;;;9.13;6.60;;;14.80;99.90;;;;;;5094743;28;20658;-77
2021/10/28 17:15:27;;;;;;;11.50;6.90;;;14.70;99.90;;;;;;5094856;28;20234;-77
2021/10/28 17:17:54;;;;;;;9.50;6.57;;;14.70;99.90;;;;;;5094583;28;20233;-77
2021/10/28 17:20:21;;;;;;;8.57;7.13;;;14.70;99.90;;;;;;5094447;28;20225;-78
2021/10/28 17:22:50;;;;;;;9.03;6.47;;;14.70;99.90;;;;;;5113874;28;20209;-77
2021/10/28 17:25:20;;;;;;;10.53;7.13;;;14.60;99.90;;;;;;5100097;28;20294;-77
2021/10/28 17:27:48;;;;;;;8.90;7.17;;;14.60;99.90;;;;;;5094639;28;20194;-77
2021/10/28 17:30:17;;;;;;;11.73;7.07;;;14.50;99.90;;;;;;5094815;28;20290;-77
2021/10/28 17:32:45;;;;;;;10.07;7.40;;;14.50;99.90;;;;;;5094516;28;20285;-77
2021/10/28 17:35:13;;;;;;;9.63;7.30;;;14.40;99.90;;;;;;5094303;28;20259;-77
2021/10/28 17:37:40;;;;;;;10.97;7.70;;;14.40;99.90;;;;;;5094246;28;20230;-76
2021/10/28 17:40:10;;;;;;;9.27;7.60;;;14.30;99.90;;;;;;5093800;28;20262;-77
2021/10/28 17:42:39;;;;;;;8.10;7.30;;;14.30;99.90;;;;;;5094063;28;20209;-77
2021/10/28 17:45:08;;;;;;;9.37;7.50;;;14.40;99.90;;;;;;5094169;28;20256;-77
2021/10/28 17:47:35;;;;;;;11.57;8.10;;;14.40;99.90;;;;;;5112189;28;20342;-77
2021/10/28 17:50:02;;;;;;;9.90;7.40;;;14.40;99.90;;;;;;5114627;28;20194;-77
2021/10/28 17:52:29;;;;;;;9.07;7.60;;;14.40;99.90;;;;;;5106625;28;20206;-77
2021/10/28 17:54:56;;;;;;;10.07;7.30;;;14.40;99.90;;;;;;5093930;28;20230;-77
2021/10/28 17:57:24;;;;;;;11.77;7.80;;;14.40;99.90;;;;;;5093495;28;20233;-77
2021/10/28 17:59:51;;;;;;;10.20;7.90;;;14.40;99.90;;;;;;5094040;28;20313;-77
2021/10/28 18:02:18;;;;;;;10.10;7.97;;;14.30;99.90;;;;;;5093596;28;20218;-77
2021/10/28 18:04:45;;;;;;;9.00;7.53;;;14.20;99.90;;;;;;5094114;28;20225;-77
2021/10/28 18:07:12;;;;;;;10.27;7.63;;;14.10;99.90;;;;;;5093451;28;20289;-77
2021/10/28 18:09:43;;;;;;;9.80;7.97;;;14.10;99.90;;;;;;5093623;28;20230;-77
2021/10/28 18:12:11;;;;;;;11.23;7.53;;;14.00;99.90;;;;;;5093519;28;20206;-76
2021/10/28 18:14:39;;;;;;;10.30;8.03;;;13.90;99.90;;;;;;5098850;28;20263;-77
2021/10/28 18:17:08;;;;;;;10.30;8.47;;;13.90;99.90;;;;;;5107104;28;20198;-77
2021/10/28 18:19:35;;;;;;;10.97;7.37;;;13.90;99.90;;;;;;5093582;28;20365;-76
2021/10/28 18:22:02;;;;;;;12.07;8.43;;;13.90;99.90;;;;;;5092784;28;20240;-77
2021/10/28 18:24:29;;;;;;;8.90;8.00;;;13.80;99.90;;;;;;5093214;28;20709;-77
2021/10/28 18:26:56;;;;;;;13.07;8.03;;;13.80;99.90;;;;;;5093349;28;20225;-77
2021/10/28 18:29:23;;;;;;;11.10;7.93;;;13.70;99.90;;;;;;5093161;28;20321;-77
2021/10/28 18:31:51;;;;;;;10.67;7.93;;;13.70;99.90;;;;;;5093384;28;20229;-77
2021/10/28 18:34:18;;;;;;;11.63;8.27;;;13.70;99.90;;;;;;5095191;28;20737;-77
2021/10/28 18:36:45;;;;;;;10.13;7.80;;;13.60;99.90;;;;;;5092719;28;20725;-77
2021/10/28 18:39:13;;;;;;;10.07;7.50;;;13.60;99.90;;;;;;5092546;28;20238;-77
2021/10/28 18:41:41;;;;;;;9.30;7.40;;;13.60;99.90;;;;;;5093271;28;20294;-77
2021/10/28 18:44:08;;;;;;;11.50;7.00;;;13.50;99.90;;;;;;5092574;28;20234;-77
2021/10/28 18:46:35;;;;;;;12.90;7.93;;;13.60;99.90;;;;;;5093053;28;20281;-77
2021/10/28 18:49:04;;;;;;;9.43;7.50;;;13.50;99.90;;;;;;5093002;28;20225;-77
2021/10/28 18:51:33;;;;;;;9.03;6.70;;;13.60;99.90;;;;;;5093138;28;20285;-77
2021/10/28 18:54:01;;;;;;;9.43;7.50;;;13.60;99.90;;;;;;5103809;28;20233;-77
2021/10/28 18:56:28;;;;;;;8.97;7.27;;;13.60;99.90;;;;;;5113020;28;20225;-77
2021/10/28 18:58:56;;;;;;;9.57;6.60;;;13.60;99.90;;;;;;5113323;28;20710;-77
2021/10/28 19:01:25;;;;;;;9.00;6.80;;;13.60;99.90;;;;;;5094322;28;20257;-77
2021/10/28 19:03:53;;;;;;;8.80;6.97;;;13.40;99.90;;;;;;5092684;28;20289;-77
2021/10/28 19:06:22;;;;;;;8.20;7.20;;;13.40;99.90;;;;;;5092086;28;20199;-77
2021/10/28 19:08:50;;;;;;;9.37;7.60;;;13.50;99.90;;;;;;5092921;28;20202;-77
2021/10/28 19:11:18;;;;;;;10.70;7.53;;;13.40;99.90;;;;;;5091371;28;20863;-77
2021/10/28 19:13:48;;;;;;;9.23;6.90;;;13.40;99.90;;;;;;5092354;28;20230;-77
2021/10/28 19:16:15;;;;;;;9.03;7.70;;;13.40;99.90;;;;;;5092579;28;20285;-77
2021/10/28 19:18:43;;;;;;;10.93;7.10;;;13.30;99.90;;;;;;5092646;28;20198;-76
2021/10/28 19:21:10;;;;;;;9.33;7.30;;;13.30;99.90;;;;;;5092278;28;20230;-77
2021/10/28 19:23:39;;;;;;;10.80;7.33;;;13.30;99.90;;;;;;5092373;28;20202;-77
2021/10/28 19:26:06;;;;;;;11.33;7.87;;;13.30;99.90;;;;;;5092692;28;20696;-76
2021/10/28 19:28:35;;;;;;;10.87;7.70;;;13.20;99.90;;;;;;5092560;28;20234;-77
2021/10/28 19:31:05;;;;;;;11.33;8.00;;;13.20;99.90;;;;;;5092016;28;20273;-76
2021/10/28 19:33:39;;;;;;;11.10;8.57;;;13.10;99.90;;;;;;5092119;28;20214;-76
2021/10/28 19:36:09;;;;;;;9.70;8.23;;;13.20;99.90;;;;;;5109313;28;20255;-76
2021/10/28 19:47:04;;;;;;;12.90;8.37;;;13.00;99.90;;;;;;4990480;28;20229;-76
2021/10/28 19:49:31;;;;;;;15.00;9.00;;;13.00;99.90;;;;;;4990196;28;20213;-77
2021/10/28 19:52:01;;;;;;;13.53;8.40;;;13.00;99.90;;;;;;4990037;28;20301;-77
2021/10/28 19:54:28;;;;;;;11.97;8.70;;;12.90;99.90;;;;;;4990196;28;20207;-77
2021/10/28 19:56:56;;;;;;;13.10;8.73;;;12.80;99.90;;;;;;4990504;28;20229;-77
2021/10/28 19:59:27;;;;;;;18.83;9.83;;;12.80;99.90;;;;;;4990506;28;20233;-76
2021/10/28 20:01:56;;;;;;;13.87;9.10;;;12.80;99.90;;;;;;4990401;28;20266;-77
2021/10/28 20:04:34;;;;;;;14.80;9.90;;;12.70;99.90;;;;;;4989751;28;20212;-77
2021/10/28 20:07:13;;;;;;;13.67;9.30;;;12.70;99.90;;;;;;4990214;28;20737;-77
2021/10/28 20:15:28;;;;;;;13.33;9.87;;;12.60;99.90;;;;;;4990630;28;20204;-76
2021/10/28 20:20:39;;;;;;;15.13;10.37;;;12.60;99.90;;;;;;5050392;28;20328;-77
2021/10/28 20:23:07;;;;;;;16.03;10.40;;;12.60;99.90;;;;;;5073712;28;20203;-77
2021/10/28 20:25:34;;;;;;;18.00;10.37;;;12.60;99.90;;;;;;5112175;28;20632;-77
2021/10/28 20:28:04;;;;;;;13.53;10.73;;;12.50;99.90;;;;;;5096400;28;20226;-76
2021/10/28 20:30:33;;;;;;;17.63;11.17;;;12.50;99.90;;;;;;5093919;28;20234;-77
2021/10/28 20:33:01;;;;;;;17.33;11.10;;;12.50;99.90;;;;;;5112012;28;20604;-76
2021/10/28 20:35:53;;;;;;;19.10;11.40;;;12.50;99.90;;;;;;5093051;28;20558;-77
2021/10/28 20:38:20;;;;;;;13.97;10.97;;;12.60;99.90;;;;;;5091791;28;20234;-77
2021/10/28 20:40:47;;;;;;;17.47;11.67;;;12.60;99.90;;;;;;5091566;28;20261;-77
2021/10/28 20:43:16;;;;;;;13.67;11.33;;;12.60;99.90;;;;;;5108220;28;20202;-76
2021/10/28 20:45:43;;;;;;;15.33;11.53;;;12.60;99.90;;;;;;5113117;28;20229;-76
2021/10/28 20:48:10;;;;;;;18.37;11.70;;;12.60;99.90;;;;;;5115427;28;20716;-76
2021/10/28 20:50:38;;;;;;;13.87;10.83;;;12.70;99.90;;;;;;5114342;28;20285;-77